createdAt,value
2019-03-16T00:00:30.869Z,97155.17
2019-03-16T00:05:35.670Z,97165.27
2019-03-16T00:10:40.494Z,97169.17
2019-03-16T00:15:45.156Z,97160.38
2019-03-16T00:20:49.896Z,97154.53
2019-03-16T00:25:54.802Z,97157.14
2019-03-16T00:30:59.586Z,97153.00
2019-03-16T00:36:04.329Z,97157.80
2019-03-16T00:41:09.194Z,97145.16
2019-03-16T00:46:13.929Z,97124.09
2019-03-16T00:51:18.659Z,97123.22
2019-03-16T00:56:23.403Z,97116.25
2019-03-16T01:01:28.031Z,97117.45
2019-03-16T01:06:33.810Z,97106.70
2019-03-16T01:11:39.576Z,97113.79
2019-03-16T01:16:44.316Z,97108.81
2019-03-16T01:21:48.957Z,97102.05
2019-03-16T01:26:53.702Z,97095.67
2019-03-16T01:31:58.232Z,97102.38
2019-03-16T01:37:02.878Z,97121.52
2019-03-16T01:42:07.623Z,97110.28
2019-03-16T01:47:12.472Z,97125.75
2019-03-16T01:52:17.210Z,97126.67
2019-03-16T01:57:21.949Z,97131.52
2019-03-16T02:02:26.694Z,97138.55
2019-03-16T02:07:31.642Z,97137.94
2019-03-16T02:12:36.383Z,97139.86
2019-03-16T02:17:41.126Z,97142.47
2019-03-16T02:22:45.976Z,97135.80
2019-03-16T02:27:50.716Z,97128.22
2019-03-16T02:33:11.051Z,97126.69
2019-03-16T02:38:01.639Z,97122.27
2019-03-16T02:43:06.375Z,97116.36
2019-03-16T02:48:11.077Z,97102.98
2019-03-16T02:53:15.867Z,97105.31
2019-03-16T02:58:20.605Z,97105.73
2019-03-16T03:03:29.905Z,97105.86
2019-03-16T03:08:31.627Z,97095.51
2019-03-16T03:13:36.573Z,97096.04
2019-03-16T03:18:43.903Z,97097.67
2019-03-16T03:23:48.620Z,97095.48
2019-03-16T03:28:53.164Z,97096.69
2019-03-16T03:34:02.122Z,97092.78
2019-03-16T03:39:06.849Z,97089.75
2019-03-16T03:44:11.799Z,97085.93
2019-03-16T03:49:16.540Z,97077.65
2019-03-16T03:54:21.278Z,97076.48
2019-03-16T03:59:25.943Z,97066.52
2019-03-16T04:04:30.659Z,97063.03
2019-03-16T04:09:35.400Z,97047.75
2019-03-16T04:14:40.147Z,97027.97
2019-03-16T04:19:44.886Z,97020.67
2019-03-16T04:24:49.520Z,97019.30
2019-03-16T04:29:54.270Z,97004.77
2019-03-16T04:34:59.019Z,96996.21
2019-03-16T04:40:04.470Z,96998.80
2019-03-16T04:45:10.615Z,96983.53
2019-03-16T04:50:15.286Z,97009.53
2019-03-16T04:55:19.919Z,97035.72
2019-03-16T05:00:26.137Z,97051.67
2019-03-16T05:05:32.185Z,97066.06
2019-03-16T05:10:36.819Z,97070.23
2019-03-16T05:15:41.564Z,97067.27
2019-03-16T05:20:46.165Z,97073.11
2019-03-16T05:25:50.946Z,97061.27
2019-03-16T05:30:55.590Z,97044.07
2019-03-16T05:36:00.433Z,97051.47
2019-03-16T05:41:08.347Z,97051.11
2019-03-16T05:46:14.116Z,97062.97
2019-03-16T05:51:18.860Z,97095.31
2019-03-16T05:56:23.489Z,97087.03
2019-03-16T06:01:28.242Z,97109.59
2019-03-16T06:06:32.985Z,97113.66
2019-03-16T06:11:37.657Z,97129.87
2019-03-16T06:16:42.368Z,97129.17
2019-03-16T06:21:49.982Z,97103.27
2019-03-16T06:26:54.927Z,97086.47
2019-03-16T06:31:59.678Z,97081.92
2019-03-16T06:37:04.473Z,97087.70
2019-03-16T06:42:10.695Z,97075.06
2019-03-16T06:47:15.331Z,97078.70
2019-03-16T06:52:20.080Z,97077.28
2019-03-16T06:57:24.825Z,97083.22
2019-03-16T07:02:29.564Z,97069.14
2019-03-16T07:07:34.230Z,97062.08
2019-03-16T07:12:39.057Z,97074.02
2019-03-16T07:17:44.004Z,97086.80
2019-03-16T07:22:48.634Z,97098.45
2019-03-16T07:27:53.645Z,97132.47
2019-03-16T07:32:58.428Z,97130.36
2019-03-16T07:38:03.171Z,97125.30
2019-03-16T07:43:07.998Z,97125.16
2019-03-16T07:48:12.878Z,97123.81
2019-03-16T07:53:17.708Z,97118.74
2019-03-16T07:58:22.564Z,97095.28
2019-03-16T08:03:27.398Z,97097.50
2019-03-16T08:08:32.250Z,97084.24
2019-03-16T08:13:37.094Z,97090.16
2019-03-16T08:18:41.940Z,97085.75
2019-03-16T08:23:46.683Z,97088.34
2019-03-16T08:28:51.429Z,97082.47
2019-03-16T08:33:56.370Z,97068.66
2019-03-16T08:39:01.122Z,97047.73
2019-03-16T08:44:06.270Z,97043.37
2019-03-16T08:49:11.124Z,97045.28
2019-03-16T08:54:15.753Z,97034.40
2019-03-16T08:59:20.597Z,97037.91
2019-03-16T09:04:25.558Z,97028.76
2019-03-16T09:09:30.293Z,97028.75
2019-03-16T09:14:35.046Z,97039.28
2019-03-16T09:19:39.783Z,97024.97
2019-03-16T09:24:45.560Z,97012.51
2019-03-16T09:29:50.294Z,97007.17
2019-03-16T09:34:55.032Z,97009.33
2019-03-16T09:39:59.900Z,97012.84
2019-03-16T09:45:05.100Z,97013.13
2019-03-16T09:50:10.600Z,97005.80
2019-03-16T09:55:15.295Z,97003.40
2019-03-16T10:00:20.191Z,97000.23
2019-03-16T10:05:24.934Z,96989.30
2019-03-16T10:10:29.578Z,96982.30
2019-03-16T10:15:34.417Z,96981.92
2019-03-16T10:20:39.064Z,96957.73
2019-03-16T10:25:43.801Z,96950.09
2019-03-16T10:30:48.547Z,96942.39
2019-03-16T10:35:53.391Z,96942.00
2019-03-16T10:40:57.958Z,96940.29
2019-03-16T10:46:02.563Z,96948.64
2019-03-16T10:51:07.944Z,96962.72
2019-03-16T10:56:12.679Z,96956.52
2019-03-16T11:01:17.623Z,96960.15
2019-03-16T11:06:23.433Z,96952.39
2019-03-16T11:11:28.238Z,96933.47
2019-03-16T11:16:32.881Z,96935.03
2019-03-16T11:21:39.047Z,96930.22
2019-03-16T11:26:43.802Z,96917.20
2019-03-16T11:31:48.551Z,96910.50
2019-03-16T11:36:53.392Z,96906.66
2019-03-16T11:41:58.134Z,96911.94
2019-03-16T11:47:02.877Z,96904.71
2019-03-16T11:52:07.721Z,96890.19
2019-03-16T11:57:12.467Z,96893.70
2019-03-16T12:02:17.122Z,96896.79
2019-03-16T12:07:21.852Z,96897.55
2019-03-16T12:12:27.312Z,96903.84
2019-03-16T12:17:32.065Z,96904.81
2019-03-16T12:22:36.905Z,96903.22
2019-03-16T12:27:41.543Z,96904.34
2019-03-16T12:32:47.958Z,96896.42
2019-03-16T12:37:52.775Z,96914.78
2019-03-16T12:42:57.536Z,96918.79
2019-03-16T12:48:08.536Z,96906.22
2019-03-16T12:53:16.312Z,96923.86
2019-03-16T12:58:21.271Z,96921.52
2019-03-16T13:03:27.767Z,96933.23
2019-03-16T13:08:32.393Z,96942.94
2019-03-16T13:13:37.027Z,96948.25
2019-03-16T13:18:41.679Z,96954.45
2019-03-16T13:23:46.651Z,96956.08
2019-03-16T13:28:51.478Z,96956.09
2019-03-16T13:33:56.116Z,96951.30
2019-03-16T13:39:00.962Z,96956.99
2019-03-16T13:44:06.322Z,96966.82
2019-03-16T13:49:11.201Z,96959.67
2019-03-16T13:54:16.014Z,96957.40
2019-03-16T13:59:20.767Z,96958.58
2019-03-16T14:04:27.653Z,96949.44
2019-03-16T14:09:32.504Z,96951.92
2019-03-16T14:14:37.420Z,96954.19
2019-03-16T14:19:42.194Z,96952.54
2019-03-16T14:24:50.146Z,96963.05
2019-03-16T14:29:54.750Z,96972.59
2019-03-16T14:34:59.490Z,96965.64
2019-03-16T14:40:06.747Z,96964.84
2019-03-16T14:45:13.146Z,96976.96
2019-03-16T14:50:19.492Z,96974.27
2019-03-16T14:55:24.205Z,96972.77
2019-03-16T15:00:38.270Z,96986.44
2019-03-16T15:05:38.507Z,96980.28
2019-03-16T15:10:43.347Z,96991.28
2019-03-16T15:15:48.093Z,96993.48
2019-03-16T15:20:52.838Z,96991.80
2019-03-16T15:25:59.214Z,96992.66
2019-03-16T15:31:04.168Z,96993.11
2019-03-16T15:36:09.907Z,96988.95
2019-03-16T15:41:14.675Z,96985.22
2019-03-16T15:46:23.353Z,96988.76
2019-03-16T15:51:27.968Z,96984.61
2019-03-16T15:56:32.795Z,96983.16
2019-03-16T16:01:37.377Z,97013.09
2019-03-16T16:06:42.289Z,97019.75
2019-03-16T16:11:47.131Z,97028.44
2019-03-16T16:16:51.873Z,97026.40
2019-03-16T16:21:57.134Z,97046.40
2019-03-16T16:27:01.879Z,97050.39
2019-03-16T16:32:06.618Z,97058.09
2019-03-16T16:37:15.084Z,97067.30
2019-03-16T16:42:27.162Z,97067.80
2019-03-16T16:47:38.433Z,97069.30
2019-03-16T16:52:51.095Z,97080.57
2019-03-16T16:58:00.153Z,97089.44
2019-03-16T17:03:09.521Z,97095.17
2019-03-16T17:08:18.159Z,97099.72
2019-03-16T17:13:23.578Z,97098.86
2019-03-16T17:18:29.452Z,97120.57
2019-03-16T17:23:34.296Z,97121.27
2019-03-16T17:28:39.244Z,97131.64
2019-03-16T17:33:43.995Z,97130.64
2019-03-16T17:38:48.728Z,97159.74
2019-03-16T17:43:53.364Z,97169.23
2019-03-16T17:48:58.018Z,97170.86
2019-03-16T17:54:02.862Z,97183.72
2019-03-16T17:59:07.606Z,97201.03
2019-03-16T18:04:12.346Z,97209.48
2019-03-16T18:09:17.291Z,97226.77
2019-03-16T18:14:21.988Z,97220.61
2019-03-16T18:19:26.675Z,97216.19
2019-03-16T18:24:31.420Z,97217.36
2019-03-16T18:29:36.277Z,97225.02
2019-03-16T18:34:41.113Z,97227.58
2019-03-16T18:39:45.780Z,97229.70
2019-03-16T18:44:51.011Z,97235.38
2019-03-16T18:49:55.855Z,97255.48
2019-03-16T18:55:00.701Z,97260.56
2019-03-16T19:00:11.830Z,97262.42
2019-03-16T19:05:17.732Z,97272.28
2019-03-16T19:10:22.892Z,97277.33
2019-03-16T19:15:28.582Z,97285.33
2019-03-16T19:20:33.395Z,97291.53
2019-03-16T19:25:40.157Z,97297.28
2019-03-16T19:30:45.988Z,97293.06
2019-03-16T19:35:50.894Z,97306.42
2019-03-16T19:40:55.591Z,97311.58
2019-03-16T19:46:00.673Z,97306.45
2019-03-16T19:51:05.730Z,97320.36
2019-03-16T19:56:10.588Z,97312.55
2019-03-16T20:01:15.541Z,97317.66
2019-03-16T20:06:25.691Z,97314.08
2019-03-16T20:11:26.800Z,97320.17
2019-03-16T20:16:31.543Z,97321.35
2019-03-16T20:21:38.387Z,97323.72
2019-03-16T20:26:43.183Z,97325.71
2019-03-16T20:31:47.832Z,97323.48
2019-03-16T20:36:53.067Z,97328.48
2019-03-16T20:41:58.322Z,97334.77
2019-03-16T20:47:04.798Z,97347.34
2019-03-16T20:52:09.767Z,97349.64
2019-03-16T20:57:15.554Z,97343.16
2019-03-16T21:02:21.824Z,97345.55
2019-03-16T21:07:26.940Z,97353.14
2019-03-16T21:12:33.488Z,97358.58
2019-03-16T21:17:39.809Z,97357.64
2019-03-16T21:22:44.956Z,97357.06
2019-03-16T21:27:49.875Z,97353.55
2019-03-16T21:32:56.671Z,97360.05
2019-03-16T21:38:01.469Z,97363.67
2019-03-16T21:43:07.381Z,97366.98
2019-03-16T21:48:12.082Z,97368.61
2019-03-16T21:53:17.460Z,97365.89
2019-03-16T21:58:22.188Z,97363.64
2019-03-16T22:03:27.028Z,97367.21
2019-03-16T22:08:31.878Z,97375.41
2019-03-16T22:13:37.410Z,97378.51
2019-03-16T22:18:42.175Z,97383.91
2019-03-16T22:23:47.844Z,97384.41
2019-03-16T22:28:53.782Z,97375.20
2019-03-16T22:33:58.781Z,97377.23
2019-03-16T22:39:04.111Z,97383.26
2019-03-16T22:44:08.840Z,97389.80
2019-03-16T22:49:13.574Z,97398.98
2019-03-16T22:54:19.306Z,97407.95
2019-03-16T22:59:24.116Z,97412.86
2019-03-16T23:04:28.752Z,97404.89
2019-03-16T23:09:33.501Z,97410.12
2019-03-16T23:14:38.242Z,97410.72
2019-03-16T23:19:44.728Z,97401.95
2019-03-16T23:24:49.914Z,97403.09
2019-03-16T23:29:55.937Z,97410.16
2019-03-16T23:35:01.697Z,97417.14
2019-03-16T23:40:13.178Z,97414.32
2019-03-16T23:45:18.744Z,97418.59
2019-03-16T23:50:24.147Z,97421.86
2019-03-16T23:55:28.988Z,97419.52
